Time;durP1;ratioP1;P1;durP2;ratioP2;P2;SDS_P1;SDS_P2;PMS_P1;PMS_P2;Temp;Humidity;BMP_temperature;BMP_pressure;BME280_temperature;BME280_humidity;BME280_pressure;Samples;Min_cycle;Max_cycle;Signal;HPM_P1;HPM_P2
2022/04/05 00:00:33;;;;;;;;;;;;;;;16.42;45.25;101309.69;143742;980;46002;-67
2022/04/05 00:02:58;;;;;;;;;;;;;;;16.31;45.39;101325.63;143740;984;47008;-67
2022/04/05 00:05:24;;;;;;;;;;;;;;;16.27;46.11;101334.41;143743;984;47000;-67
2022/04/05 00:07:50;;;;;;;;;;;;;;;16.28;45.63;101292.69;143741;984;46011;-67
2022/04/05 00:10:16;;;;;;;;;;;;;;;16.30;45.98;101304.16;143742;979;46012;-67
2022/04/05 00:12:42;;;;;;;;;;;;;;;16.31;45.79;101276.00;143742;985;46008;-67
2022/04/05 00:15:09;;;;;;;;;;;;;;;16.32;45.58;101283.91;143744;984;46009;-67
2022/04/05 00:17:36;;;;;;;;;;;;;;;16.33;45.29;101290.16;143742;983;46011;-67
2022/04/05 00:20:02;;;;;;;;;;;;;;;16.32;45.07;101247.84;143740;980;47002;-67
2022/04/05 00:22:28;;;;;;;;;;;;;;;16.32;45.27;101250.53;143743;985;46009;-67
2022/04/05 00:24:54;;;;;;;;;;;;;;;16.28;44.97;101258.31;143745;983;46000;-68
2022/04/05 00:27:20;;;;;;;;;;;;;;;16.28;44.84;101257.47;143743;984;46010;-66
2022/04/05 00:29:46;;;;;;;;;;;;;;;16.33;44.73;101255.72;143742;980;46010;-67
2022/04/05 00:32:12;;;;;;;;;;;;;;;16.30;44.55;101258.06;143741;985;46008;-67
2022/04/05 00:34:38;;;;;;;;;;;;;;;16.35;43.86;101217.56;143739;984;47000;-67
2022/04/05 00:37:04;;;;;;;;;;;;;;;16.36;44.42;101246.34;143741;984;46011;-68
2022/04/05 00:39:30;;;;;;;;;;;;;;;16.30;44.35;101241.81;143738;979;47002;-66
2022/04/05 00:41:56;;;;;;;;;;;;;;;16.26;44.06;101249.56;143744;977;46008;-69
2022/04/05 00:44:22;;;;;;;;;;;;;;;16.27;43.97;101217.84;143744;984;47000;-68
2022/04/05 00:46:49;;;;;;;;;;;;;;;16.28;44.15;101238.50;143742;983;46011;-68
2022/04/05 00:49:29;;;;;;;;;;;;;;;16.24;44.12;101234.59;143738;980;47002;-67
2022/04/05 00:51:55;;;;;;;;;;;;;;;16.26;44.25;101225.19;143741;983;46008;-68
2022/04/05 00:54:22;;;;;;;;;;;;;;;16.28;44.62;101209.53;143742;983;47000;-67
2022/04/05 00:56:49;;;;;;;;;;;;;;;16.31;44.54;101205.53;143741;984;47010;-68
2022/04/05 00:59:17;;;;;;;;;;;;;;;16.33;44.95;101185.25;143741;980;47002;-66
2022/04/05 01:01:45;;;;;;;;;;;;;;;16.33;44.81;101198.00;143742;985;46009;-67
2022/04/05 01:04:12;;;;;;;;;;;;;;;16.30;44.30;101220.97;143742;984;47000;-67
2022/04/05 01:06:43;;;;;;;;;;;;;;;16.29;44.18;101207.63;143744;984;46002;-68
2022/04/05 01:09:09;;;;;;;;;;;;;;;16.29;44.47;101200.34;143742;980;46002;-67
2022/04/05 01:11:36;;;;;;;;;;;;;;;16.28;44.44;101209.53;143744;984;46008;-67
2022/04/05 01:14:02;;;;;;;;;;;;;;;16.25;44.98;101215.38;143743;984;46000;-67
2022/04/05 01:16:28;;;;;;;;;;;;;;;16.24;45.13;101221.84;143743;983;46011;-66
2022/04/05 01:18:54;;;;;;;;;;;;;;;16.25;45.10;101218.09;143740;980;47002;-66
2022/04/05 01:21:20;;;;;;;;;;;;;;;16.25;44.75;101201.84;143741;984;46008;-66
2022/04/05 01:24:06;;;;;;;;;;;;;;;16.25;45.34;101206.41;143744;983;46000;-67
2022/04/05 01:26:39;;;;;;;;;;;;;;;16.23;45.57;101195.00;143744;984;46010;-67
2022/04/05 01:29:05;;;;;;;;;;;;;;;16.25;45.12;101182.84;143740;980;46002;-67
2022/04/05 01:31:35;;;;;;;;;;;;;;;16.28;45.10;101193.25;143742;985;46008;-67
2022/04/05 01:34:01;;;;;;;;;;;;;;;16.26;45.33;101189.94;143743;984;46000;-67
2022/04/05 01:36:27;;;;;;;;;;;;;;;16.26;44.87;101189.94;143742;984;46010;-67
2022/04/05 01:38:53;;;;;;;;;;;;;;;16.24;45.60;101192.03;143739;979;47002;-67
2022/04/05 01:41:19;;;;;;;;;;;;;;;16.24;45.55;101180.38;143741;986;46935;-66
2022/04/05 01:43:45;;;;;;;;;;;;;;;16.23;45.32;101160.56;143745;984;46007;-67
2022/04/05 01:46:11;;;;;;;;;;;;;;;16.23;45.65;101157.03;143742;984;46011;-66
2022/04/05 01:48:37;;;;;;;;;;;;;;;16.22;44.94;101158.91;143739;979;47002;-67
2022/04/05 01:51:02;;;;;;;;;;;;;;;16.25;45.62;101146.78;143743;985;46008;-67
2022/04/05 01:53:28;;;;;;;;;;;;;;;16.23;45.23;101149.72;143744;984;46011;-67
2022/04/05 01:55:54;;;;;;;;;;;;;;;16.26;44.86;101151.16;143742;984;46010;-68
2022/04/05 01:58:20;;;;;;;;;;;;;;;16.27;45.20;101160.94;143737;980;47002;-66
2022/04/05 02:00:49;;;;;;;;;;;;;;;16.27;45.09;101169.06;143742;985;46009;-67
2022/04/05 02:03:15;;;;;;;;;;;;;;;16.28;45.10;101179.69;143744;976;46024;-66
2022/04/05 02:05:40;;;;;;;;;;;;;;;16.26;44.85;101180.97;143740;984;46010;-68
2022/04/05 02:08:06;;;;;;;;;;;;;;;16.24;45.43;101178.50;143739;980;47002;-67
2022/04/05 02:10:32;;;;;;;;;;;;;;;16.19;46.37;101172.91;143738;985;47004;-67
2022/04/05 02:12:58;;;;;;;;;;;;;;;16.17;45.99;101175.00;143742;984;47000;-66
2022/04/05 02:15:24;;;;;;;;;;;;;;;16.12;46.83;101183.00;143742;984;46011;-67
2022/04/05 02:17:50;;;;;;;;;;;;;;;16.10;46.09;101164.25;143739;979;47002;-66
2022/04/05 02:20:17;;;;;;;;;;;;;;;16.06;46.34;101177.41;143744;982;46000;-68
2022/04/05 02:22:43;;;;;;;;;;;;;;;16.03;46.74;101187.88;143743;984;47000;-67
2022/04/05 02:25:09;;;;;;;;;;;;;;;16.00;46.53;101197.28;143742;984;46010;-67
2022/04/05 02:27:39;;;;;;;;;;;;;;;15.94;46.52;101194.62;143743;980;46002;-68
2022/04/05 02:30:05;;;;;;;;;;;;;;;15.85;46.70;101191.34;143739;985;46936;-67
2022/04/05 02:32:31;;;;;;;;;;;;;;;15.82;46.07;101184.50;143742;983;47004;-66
2022/04/05 02:34:57;;;;;;;;;;;;;;;15.84;46.19;101163.44;143744;984;46010;-67
2022/04/05 02:37:23;;;;;;;;;;;;;;;15.85;46.70;101150.72;143743;980;46002;-66
2022/04/05 02:39:49;;;;;;;;;;;;;;;15.85;46.80;101159.72;143743;985;46008;-67
2022/04/05 02:42:15;;;;;;;;;;;;;;;15.90;46.66;101162.56;143746;984;47000;-68
2022/04/05 02:44:41;;;;;;;;;;;;;;;15.90;46.62;101165.28;143741;984;46010;-67
2022/04/05 02:47:07;;;;;;;;;;;;;;;15.88;45.91;101169.25;143740;979;47002;-66
2022/04/05 02:49:33;;;;;;;;;;;;;;;15.89;45.74;101166.31;143743;986;46008;-67
2022/04/05 02:51:59;;;;;;;;;;;;;;;15.87;45.27;101164.91;143743;984;46009;-67
2022/04/05 02:54:25;;;;;;;;;;;;;;;15.84;45.25;101144.47;143743;983;46934;-68
2022/04/05 02:56:51;;;;;;;;;;;;;;;15.82;45.32;101140.31;143740;980;47002;-66
2022/04/05 02:59:17;;;;;;;;;;;;;;;15.84;45.43;101132.81;143741;985;46008;-67
2022/04/05 03:01:42;;;;;;;;;;;;;;;15.82;45.20;101124.91;143744;983;47000;-67
2022/04/05 03:04:08;;;;;;;;;;;;;;;15.85;44.89;101113.66;143743;974;46010;-66
2022/04/05 03:06:34;;;;;;;;;;;;;;;15.85;45.20;101123.62;143739;980;49010;-67
2022/04/05 03:09:00;;;;;;;;;;;;;;;15.85;45.39;101140.75;143744;983;46936;-66
2022/04/05 03:11:26;;;;;;;;;;;;;;;15.85;45.75;101157.00;143741;984;47000;-66
2022/04/05 03:13:52;;;;;;;;;;;;;;;15.84;46.31;101155.31;143742;984;46933;-67
2022/04/05 03:16:18;;;;;;;;;;;;;;;15.86;46.60;101158.66;143741;979;46014;-67
2022/04/05 03:18:47;;;;;;;;;;;;;;;15.87;46.90;101159.47;143744;969;46000;-67
2022/04/05 03:21:14;;;;;;;;;;;;;;;15.85;46.76;101154.31;143744;984;47000;-67
2022/04/05 03:23:40;;;;;;;;;;;;;;;15.80;46.40;101155.97;143743;973;46011;-67
2022/04/05 03:26:06;;;;;;;;;;;;;;;15.84;46.55;101157.19;143742;980;46012;-68
2022/04/05 03:28:32;;;;;;;;;;;;;;;15.87;46.81;101151.34;143743;986;46008;-68
2022/04/05 03:30:58;;;;;;;;;;;;;;;15.87;46.69;101151.34;143741;983;47000;-67
2022/04/05 03:33:24;;;;;;;;;;;;;;;15.84;46.65;101144.47;143740;984;47010;-68
2022/04/05 03:35:50;;;;;;;;;;;;;;;15.84;46.25;101140.94;143737;980;49010;-66
2022/04/05 03:38:15;;;;;;;;;;;;;;;15.84;46.01;101140.94;143741;985;46936;-66
2022/04/05 03:40:41;;;;;;;;;;;;;;;15.84;45.67;101139.06;143743;984;46007;-66
2022/04/05 03:43:12;;;;;;;;;;;;;;;15.83;46.37;101152.81;143743;984;46934;-66
2022/04/05 03:45:38;;;;;;;;;;;;;;;15.84;45.76;101162.59;143740;979;47002;-66
2022/04/05 03:48:04;;;;;;;;;;;;;;;15.83;45.99;101147.41;143741;985;46008;-67
2022/04/05 03:50:31;;;;;;;;;;;;;;;15.81;46.60;101161.19;143740;984;47000;-68
2022/04/05 03:52:59;;;;;;;;;;;;;;;15.80;46.43;101156.81;143740;983;46934;-67
2022/04/05 03:55:27;;;;;;;;;;;;;;;15.79;46.06;101151.63;143741;980;46002;-67
2022/04/05 03:57:53;;;;;;;;;;;;;;;15.76;46.05;101158.28;143742;986;46008;-67
2022/04/05 04:00:19;;;;;;;;;;;;;;;15.75;46.57;101145.81;143736;984;47000;-66
2022/04/05 04:02:45;;;;;;;;;;;;;;;15.79;45.80;101144.31;143735;984;46010;-67
2022/04/05 04:05:16;;;;;;;;;;;;;;;15.80;46.14;101148.69;143732;980;47002;-67
2022/04/05 04:07:43;;;;;;;;;;;;;;;15.80;46.51;101159.50;143737;985;46008;-68
2022/04/05 04:10:09;;;;;;;;;;;;;;;15.84;46.66;101166.16;143737;984;47000;-68
2022/04/05 04:12:35;;;;;;;;;;;;;;;15.87;46.26;101156.78;143733;984;46010;-67
2022/04/05 04:15:01;;;;;;;;;;;;;;;15.83;46.41;101161.78;143736;979;47002;-67
2022/04/05 04:17:27;;;;;;;;;;;;;;;15.80;45.77;101148.69;143736;985;46008;-66
2022/04/05 04:19:53;;;;;;;;;;;;;;;15.81;46.07;101163.88;143736;984;47000;-66
2022/04/05 04:22:19;;;;;;;;;;;;;;;15.80;46.19;101156.81;143735;973;46027;-67
2022/04/05 04:24:45;;;;;;;;;;;;;;;15.80;46.23;101156.81;143734;979;47002;-67
2022/04/05 04:27:11;;;;;;;;;;;;;;;15.80;45.89;101151.38;143735;986;46008;-67
2022/04/05 04:29:37;;;;;;;;;;;;;;;15.81;46.54;101144.06;143733;984;47000;-68
2022/04/05 04:32:04;;;;;;;;;;;;;;;15.81;46.13;101142.22;143735;984;46933;-67
2022/04/05 04:34:30;;;;;;;;;;;;;;;15.81;46.57;101127.81;143736;980;46002;-66
2022/04/05 04:36:56;;;;;;;;;;;;;;;15.82;46.33;101115.94;143734;986;47936;-68
2022/04/05 04:39:22;;;;;;;;;;;;;;;15.87;46.68;101129.69;143734;984;47000;-66
2022/04/05 04:41:48;;;;;;;;;;;;;;;15.91;46.51;101112.75;143734;984;47002;-67
2022/04/05 04:44:14;;;;;;;;;;;;;;;15.90;46.67;101124.63;143733;980;47002;-68
2022/04/05 04:46:40;;;;;;;;;;;;;;;15.89;46.10;101131.09;143737;986;46008;-67
2022/04/05 04:49:06;;;;;;;;;;;;;;;15.87;46.60;101137.81;143734;984;47000;-67
2022/04/05 04:51:32;;;;;;;;;;;;;;;15.88;46.26;101147.59;143737;984;46002;-68
2022/04/05 04:53:58;;;;;;;;;;;;;;;15.85;46.21;101166.97;143732;979;47004;-67
2022/04/05 04:56:24;;;;;;;;;;;;;;;15.83;46.60;101169.06;143735;986;46010;-66
2022/04/05 04:58:50;;;;;;;;;;;;;;;15.81;46.43;101190.13;143734;984;47002;-66
2022/04/05 05:01:16;;;;;;;;;;;;;;;15.84;46.60;101204.06;143732;983;47012;-68
2022/04/05 05:03:41;;;;;;;;;;;;;;;15.85;46.35;101203.06;143732;980;47004;-68
2022/04/05 05:06:07;;;;;;;;;;;;;;;15.84;46.46;101203.22;143735;986;46011;-69
2022/04/05 05:08:33;;;;;;;;;;;;;;;15.83;47.08;101205.12;143736;984;47002;-68
2022/04/05 05:10:59;;;;;;;;;;;;;;;15.85;47.45;101213.88;143735;983;46012;-68
2022/04/05 05:13:25;;;;;;;;;;;;;;;15.88;47.47;101208.03;143733;980;48938;-68
2022/04/05 05:15:51;;;;;;;;;;;;;;;15.91;47.17;101214.88;143735;979;46021;-68
2022/04/05 05:18:17;;;;;;;;;;;;;;;15.93;47.42;101223.63;143737;984;46010;-68
2022/04/05 05:20:42;;;;;;;;;;;;;;;15.96;47.38;101223.19;143733;984;47012;-68
2022/04/05 05:23:08;;;;;;;;;;;;;;;15.99;47.44;101221.88;143736;969;46031;-69
2022/04/05 05:25:34;;;;;;;;;;;;;;;15.99;47.18;101220.00;143735;985;46935;-68
2022/04/05 05:28:01;;;;;;;;;;;;;;;16.04;46.65;101208.50;143735;984;47002;-68
2022/04/05 05:30:27;;;;;;;;;;;;;;;16.08;46.82;101217.81;143735;983;46013;-69
2022/04/05 05:32:53;;;;;;;;;;;;;;;16.12;47.00;101218.22;143732;980;47004;-70
2022/04/05 05:35:20;;;;;;;;;;;;;;;16.13;46.31;101204.44;143735;985;46935;-68
2022/04/05 05:37:46;;;;;;;;;;;;;;;16.15;46.86;101194.22;143734;983;47002;-68
2022/04/05 05:40:13;;;;;;;;;;;;;;;16.17;46.41;101192.13;143733;979;47012;-68
2022/04/05 05:42:51;;;;;;;;;;;;;;;16.20;46.28;101210.66;143730;980;47012;-68
2022/04/05 05:45:17;;;;;;;;;;;;;;;16.22;45.71;101210.41;143737;985;46010;-68
2022/04/05 05:47:43;;;;;;;;;;;;;;;16.24;46.01;101211.00;143732;984;47002;-68
2022/04/05 05:50:12;;;;;;;;;;;;;;;16.28;45.66;101205.97;143733;984;47012;-68
2022/04/05 05:52:39;;;;;;;;;;;;;;;16.31;45.79;101209.06;143734;979;47004;-67
2022/04/05 05:55:05;;;;;;;;;;;;;;;16.35;44.93;101209.44;143737;985;46010;-68
2022/04/05 05:57:31;;;;;;;;;;;;;;;16.35;45.62;101215.69;143735;984;47002;-68
2022/04/05 05:59:57;;;;;;;;;;;;;;;16.37;45.01;101226.31;143735;983;46013;-69
2022/04/05 06:02:23;;;;;;;;;;;;;;;16.36;45.90;101227.38;143733;980;47004;-68
2022/04/05 06:04:49;;;;;;;;;;;;;;;16.35;46.93;101228.41;143738;985;46011;-69
2022/04/05 06:07:14;;;;;;;;;;;;;;;16.35;46.49;101220.28;143737;983;46002;-68
2022/04/05 06:09:40;;;;;;;;;;;;;;;16.37;46.61;101216.28;143736;984;46012;-68
2022/04/05 06:12:07;;;;;;;;;;;;;;;16.42;46.65;101209.38;143733;980;47004;-68
2022/04/05 06:14:33;;;;;;;;;;;;;;;16.47;46.63;101201.41;143738;985;46010;-68
2022/04/05 06:16:59;;;;;;;;;;;;;;;16.50;46.33;101193.63;143739;984;46010;-69
2022/04/05 06:19:25;;;;;;;;;;;;;;;16.55;46.41;101184.81;143735;984;47012;-69
2022/04/05 06:21:50;;;;;;;;;;;;;;;16.58;46.21;101175.41;143734;979;47004;-68
2022/04/05 06:24:18;;;;;;;;;;;;;;;16.61;45.57;101178.47;143736;983;46010;-67
2022/04/05 06:26:44;;;;;;;;;;;;;;;16.67;45.68;101171.31;143738;983;47002;-67
2022/04/05 06:29:10;;;;;;;;;;;;;;;16.72;45.60;101171.47;143738;983;46005;-68
2022/04/05 06:31:36;;;;;;;;;;;;;;;16.76;45.38;101172.66;143733;980;47004;-68
2022/04/05 06:34:02;;;;;;;;;;;;;;;16.86;45.00;101177.53;143735;985;46010;-68
2022/04/05 06:36:29;;;;;;;;;;;;;;;16.92;45.11;101179.31;143733;983;47002;-68
2022/04/05 06:38:55;;;;;;;;;;;;;;;16.98;45.96;101185.75;143735;984;46012;-67
2022/04/05 06:41:21;;;;;;;;;;;;;;;17.05;45.23;101182.94;143734;980;47004;-67
2022/04/05 06:43:47;;;;;;;;;;;;;;;17.07;45.26;101187.09;143734;985;46011;-67
2022/04/05 06:46:15;;;;;;;;;;;;;;;17.14;45.30;101187.00;143733;983;47002;-68
2022/04/05 06:48:41;;;;;;;;;;;;;;;17.21;45.36;101181.47;143737;971;46004;-67
2022/04/05 06:51:07;;;;;;;;;;;;;;;17.26;44.86;101174.28;143734;980;46013;-68
2022/04/05 06:53:33;;;;;;;;;;;;;;;17.31;44.45;101173.56;143735;985;46010;-68
2022/04/05 06:55:59;;;;;;;;;;;;;;;17.30;43.63;101180.06;143732;984;49002;-68
2022/04/05 06:58:25;;;;;;;;;;;;;;;17.35;43.59;101179.37;143734;984;47004;-70
2022/04/05 07:00:51;;;;;;;;;;;;;;;17.40;43.54;101179.50;143733;980;47004;-68
2022/04/05 07:03:17;;;;;;;;;;;;;;;17.48;44.29;101186.47;143732;986;47002;-67
2022/04/05 07:05:43;;;;;;;;;;;;;;;17.52;44.48;101191.22;143735;984;47002;-73
2022/04/05 07:08:10;;;;;;;;;;;;;;;17.59;44.06;101193.81;143733;984;47012;-68
2022/04/05 07:10:37;;;;;;;;;;;;;;;17.65;43.79;101183.91;143732;980;47004;-74
2022/04/05 07:13:03;;;;;;;;;;;;;;;17.68;43.07;101184.25;143737;973;46011;-69
2022/04/05 07:15:30;;;;;;;;;;;;;;;17.71;43.25;101182.97;143732;984;47002;-69
2022/04/05 07:17:56;;;;;;;;;;;;;;;17.76;42.86;101179.56;143735;984;46012;-67
2022/04/05 07:20:22;;;;;;;;;;;;;;;17.83;43.06;101174.81;143731;980;47005;-68
2022/04/05 07:22:48;;;;;;;;;;;;;;;17.90;43.38;101166.56;143737;986;46010;-67
2022/04/05 07:25:21;;;;;;;;;;;;;;;17.95;43.42;101161.22;143733;984;47002;-70
2022/04/05 07:27:47;;;;;;;;;;;;;;;18.01;44.18;101172.00;143732;984;47012;-67
2022/04/05 07:30:14;;;;;;;;;;;;;;;18.05;44.11;101160.66;143736;979;46004;-67
2022/04/05 07:32:42;;;;;;;;;;;;;;;18.08;44.04;101177.34;143736;986;46010;-69
2022/04/05 07:35:08;;;;;;;;;;;;;;;18.12;43.67;101175.78;143734;984;47002;-67
2022/04/05 07:37:35;;;;;;;;;;;;;;;18.15;42.60;101177.22;143734;983;47013;-67
2022/04/05 07:40:03;;;;;;;;;;;;;;;18.16;42.63;101182.41;143733;980;47004;-67
2022/04/05 07:42:29;;;;;;;;;;;;;;;18.20;42.68;101190.09;143735;970;46030;-67
2022/04/05 07:44:55;;;;;;;;;;;;;;;18.23;43.38;101187.72;143736;983;47002;-68
2022/04/05 07:47:21;;;;;;;;;;;;;;;18.30;43.56;101180.25;143736;984;46012;-68
2022/04/05 07:49:47;;;;;;;;;;;;;;;18.41;44.02;101178.59;143732;980;47004;-67
2022/04/05 07:52:14;;;;;;;;;;;;;;;18.55;43.31;101176.41;143735;983;46002;-69
2022/04/05 07:54:41;;;;;;;;;;;;;;;18.56;42.67;101178.06;143735;984;47002;-68
2022/04/05 07:57:08;;;;;;;;;;;;;;;18.55;42.50;101184.56;143735;984;47004;-67
2022/04/05 07:59:34;;;;;;;;;;;;;;;18.62;41.19;101188.00;143733;979;47004;-68
2022/04/05 08:02:00;;;;;;;;;;;;;;;18.68;41.65;101183.47;143737;985;46010;-68
2022/04/05 08:04:26;;;;;;;;;;;;;;;18.70;41.33;101181.34;143733;984;47002;-70
2022/04/05 08:06:52;;;;;;;;;;;;;;;18.72;41.50;101181.09;143733;983;46013;-69
2022/04/05 08:09:18;;;;;;;;;;;;;;;18.83;41.96;101168.50;143732;980;47004;-68
2022/04/05 08:11:44;;;;;;;;;;;;;;;18.95;41.38;101174.78;143735;986;46011;-68
2022/04/05 08:14:10;;;;;;;;;;;;;;;19.03;40.61;101171.66;143735;970;47002;-67
2022/04/05 08:16:36;;;;;;;;;;;;;;;19.18;41.71;101173.84;143733;975;47012;-67
2022/04/05 08:19:02;;;;;;;;;;;;;;;19.31;40.83;101175.41;143732;980;47005;-67
2022/04/05 08:21:29;;;;;;;;;;;;;;;19.35;40.44;101168.38;143734;984;46012;-67
2022/04/05 08:23:55;;;;;;;;;;;;;;;19.45;39.81;101166.91;143733;984;47002;-67
2022/04/05 08:26:21;;;;;;;;;;;;;;;19.60;40.01;101169.88;143736;970;46030;-69
2022/04/05 08:28:47;;;;;;;;;;;;;;;19.70;40.29;101166.50;143733;979;47004;-68
2022/04/05 08:31:13;;;;;;;;;;;;;;;19.71;38.82;101151.81;143735;986;46010;-69
2022/04/05 08:33:40;;;;;;;;;;;;;;;19.65;38.34;101156.34;143734;984;47002;-68
2022/04/05 08:36:06;;;;;;;;;;;;;;;19.64;39.17;101151.13;143735;981;46013;-68
2022/04/05 08:38:33;;;;;;;;;;;;;;;19.61;39.50;101157.91;143733;980;47004;-67
2022/04/05 08:41:02;;;;;;;;;;;;;;;19.63;38.91;101152.22;143735;985;46936;-66
2022/04/05 08:43:29;;;;;;;;;;;;;;;19.59;38.88;101149.16;143736;983;47002;-69
2022/04/05 08:45:58;;;;;;;;;;;;;;;19.60;38.75;101144.53;143735;983;46012;-67
2022/04/05 08:48:26;;;;;;;;;;;;;;;19.59;38.92;101142.91;143733;980;47004;-69
2022/04/05 08:50:53;;;;;;;;;;;;;;;19.49;38.69;101140.84;143735;985;46011;-69
2022/04/05 08:53:19;;;;;;;;;;;;;;;19.49;39.63;101136.22;143733;984;47002;-70
2022/04/05 08:55:45;;;;;;;;;;;;;;;19.50;39.21;101142.50;143732;984;46012;-68
2022/04/05 08:58:13;;;;;;;;;;;;;;;19.46;39.40;101146.78;143733;980;47004;-68
2022/04/05 09:00:39;;;;;;;;;;;;;;;19.38;38.89;101150.75;143737;970;46010;-68
2022/04/05 09:03:06;;;;;;;;;;;;;;;19.32;39.01;101144.41;143734;984;47002;-67
2022/04/05 09:05:33;;;;;;;;;;;;;;;19.30;39.58;101140.25;143733;984;47012;-67
2022/04/05 09:08:11;;;;;;;;;;;;;;;19.15;38.95;101138.91;143732;980;47004;-67
2022/04/05 09:10:37;;;;;;;;;;;;;;;19.03;39.67;101130.81;143736;986;46010;-68
2022/04/05 09:13:03;;;;;;;;;;;;;;;18.92;40.02;101124.31;143734;984;47002;-68
2022/04/05 09:15:29;;;;;;;;;;;;;;;18.93;39.79;101131.44;143734;984;46012;-67
2022/04/05 09:17:56;;;;;;;;;;;;;;;18.68;40.23;101125.53;143734;980;46013;-68
2022/04/05 09:20:26;;;;;;;;;;;;;;;18.52;40.69;101121.66;143737;975;46010;-67
2022/04/05 09:22:54;;;;;;;;;;;;;;;18.45;41.48;101125.34;143736;984;47002;-66
2022/04/05 09:25:20;;;;;;;;;;;;;;;18.49;41.13;101121.09;143737;974;46933;-68
2022/04/05 09:27:54;;;;;;;;;;;;;;;18.48;41.18;101115.91;143730;979;47015;-68
2022/04/05 09:30:31;;;;;;;;;;;;;;;18.51;41.12;101129.03;143734;985;46010;-68
2022/04/05 09:32:57;;;;;;;;;;;;;;;18.52;41.78;101127.94;143736;984;46012;-69
2022/04/05 09:35:30;;;;;;;;;;;;;;;18.46;41.72;101129.72;143733;983;47013;-69
2022/04/05 09:38:15;;;;;;;;;;;;;;;18.34;42.13;101128.94;143735;980;47004;-68
2022/04/05 09:40:41;;;;;;;;;;;;;;;18.25;42.59;101125.78;143736;984;46010;-68
2022/04/05 09:43:12;;;;;;;;;;;;;;;18.30;43.10;101125.88;143735;983;47002;-68
2022/04/05 09:45:42;;;;;;;;;;;;;;;18.35;43.20;101127.88;143735;984;46012;-67
2022/04/05 09:48:11;;;;;;;;;;;;;;;18.37;42.88;101120.31;143731;976;47004;-67
2022/04/05 09:50:55;;;;;;;;;;;;;;;18.25;42.95;101122.25;143735;985;46008;-68
2022/04/05 09:53:21;;;;;;;;;;;;;;;18.17;42.66;101126.97;143734;982;47000;-68
2022/04/05 09:55:47;;;;;;;;;;;;;;;18.15;43.15;101128.28;143733;984;47010;-68
2022/04/05 09:58:14;;;;;;;;;;;;;;;18.16;43.49;101106.28;143732;979;47002;-67
2022/04/05 10:00:41;;;;;;;;;;;;;;;18.13;43.52;101114.09;143736;977;46023;-68
2022/04/05 10:03:08;;;;;;;;;;;;;;;18.04;42.98;101124.53;143737;984;46002;-68
2022/04/05 10:05:35;;;;;;;;;;;;;;;18.07;43.48;101126.75;143733;983;46017;-68
2022/04/05 10:08:01;;;;;;;;;;;;;;;18.07;43.87;101125.91;143733;980;47014;-68
2022/04/05 10:10:27;;;;;;;;;;;;;;;18.11;44.52;101124.38;143736;984;46010;-69
2022/04/05 10:12:53;;;;;;;;;;;;;;;18.17;44.43;101135.13;143735;983;47002;-68
2022/04/05 10:15:21;;;;;;;;;;;;;;;18.24;43.76;101132.28;143734;977;46012;-69
2022/04/05 10:17:48;;;;;;;;;;;;;;;18.34;44.12;101126.22;143732;980;47004;-69
2022/04/05 10:20:16;;;;;;;;;;;;;;;18.43;43.67;101124.78;143735;985;46011;-72
2022/04/05 10:22:43;;;;;;;;;;;;;;;18.45;43.79;101130.78;143732;974;47002;-69
2022/04/05 10:25:09;;;;;;;;;;;;;;;18.44;43.10;101131.03;143735;976;46013;-70
2022/04/05 10:27:35;;;;;;;;;;;;;;;18.42;43.92;101123.12;143733;979;47004;-70
2022/04/05 10:30:21;;;;;;;;;;;;;;;18.47;43.85;101112.34;143736;986;46010;-72
2022/04/05 10:33:22;;;;;;;;;;;;;;;18.54;44.42;101131.22;143734;984;47002;-69
2022/04/05 10:35:53;;;;;;;;;;;;;;;18.45;43.79;101127.25;143733;981;47013;-70
2022/04/05 10:38:19;;;;;;;;;;;;;;;18.56;43.84;101120.94;143732;980;47004;-69
2022/04/05 10:41:03;;;;;;;;;;;;;;;18.63;43.96;101121.63;143736;983;46012;-69
2022/04/05 10:43:29;;;;;;;;;;;;;;;18.76;43.42;101112.34;143736;981;47002;-69
2022/04/05 10:45:55;;;;;;;;;;;;;;;18.97;43.19;101130.97;143734;984;46012;-69
2022/04/05 10:48:25;;;;;;;;;;;;;;;19.02;43.46;101121.00;143732;980;47004;-70
2022/04/05 10:51:32;;;;;;;;;;;;;;;18.95;43.61;101123.06;143736;985;46934;-70
2022/04/05 10:54:17;;;;;;;;;;;;;;;18.81;43.78;101130.66;143736;984;47002;-72
2022/04/05 10:57:03;;;;;;;;;;;;;;;18.74;43.98;101122.66;143735;968;46032;-70
2022/04/05 10:59:44;;;;;;;;;;;;;;;18.74;44.12;101111.78;143733;980;47004;-72
2022/04/05 11:02:35;;;;;;;;;;;;;;;18.78;44.26;101125.69;143734;986;46010;-70
2022/04/05 11:05:03;;;;;;;;;;;;;;;18.84;44.12;101115.72;143736;983;47002;-69
2022/04/05 11:07:49;;;;;;;;;;;;;;;18.82;43.25;101113.28;143734;984;46012;-69
2022/04/05 11:10:18;;;;;;;;;;;;;;;18.78;43.38;101112.94;143731;980;47004;-72
2022/04/05 11:12:44;;;;;;;;;;;;;;;18.82;44.06;101113.28;143735;985;46010;-70
2022/04/05 11:15:10;;;;;;;;;;;;;;;18.85;44.19;101115.50;143735;984;47002;-71
2022/04/05 11:17:37;;;;;;;;;;;;;;;18.86;43.69;101108.16;143737;971;46013;-71
2022/04/05 11:20:04;;;;;;;;;;;;;;;18.91;43.92;101105.53;143732;979;47004;-69
2022/04/05 11:22:34;;;;;;;;;;;;;;;18.93;43.46;101104.22;143735;982;46010;-70
2022/04/05 11:25:04;;;;;;;;;;;;;;;18.97;44.29;101109.19;143737;984;46013;-70
2022/04/05 11:27:35;;;;;;;;;;;;;;;18.95;43.39;101109.44;143735;983;46013;-70
2022/04/05 11:30:19;;;;;;;;;;;;;;;18.98;42.99;101108.94;143731;980;47004;-79
2022/04/05 11:33:03;;;;;;;;;;;;;;;18.90;43.15;101106.59;143737;984;46011;-82
2022/04/05 11:35:34;;;;;;;;;;;;;;;18.93;43.09;101095.22;143737;968;46032;-80
2022/04/05 11:37:59;;;;;;;;;;;;;;;18.87;43.30;101091.59;143738;984;46012;-80
2022/04/05 11:40:26;;;;;;;;;;;;;;;18.68;42.97;101095.59;143733;980;46013;-83
2022/04/05 11:42:52;;;;;;;;;;;;;;;18.62;43.25;101098.22;143736;985;46010;-82
2022/04/05 11:45:19;;;;;;;;;;;;;;;18.51;43.70;101100.97;143736;984;46002;-81
2022/04/05 11:47:54;;;;;;;;;;;;;;;18.55;43.01;101097.53;143735;984;46013;-81
2022/04/05 11:50:21;;;;;;;;;;;;;;;18.71;42.28;101090.47;143735;959;47004;-81
2022/04/05 11:52:46;;;;;;;;;;;;;;;18.85;42.27;101087.44;143735;985;46010;-83
2022/04/05 11:58:03;;;;;;;;;;;;;;;18.96;42.94;101083.88;143736;983;46938;-72
2022/04/05 12:00:29;;;;;;;;;;;;;;;18.94;42.74;101080.56;143736;985;46012;-73
2022/04/05 12:03:02;;;;;;;;;;;;;;;18.91;42.47;101076.41;143737;985;46011;-72
2022/04/05 12:05:41;;;;;;;;;;;;;;;18.97;42.15;101074.66;143736;983;47002;-74
2022/04/05 12:08:09;;;;;;;;;;;;;;;18.94;42.74;101072.38;143734;984;46935;-70
2022/04/05 12:10:35;;;;;;;;;;;;;;;18.98;42.30;101073.56;143733;980;46571;-72
2022/04/05 12:13:02;;;;;;;;;;;;;;;19.09;42.62;101069.09;143736;985;46010;-72
2022/04/05 12:15:29;;;;;;;;;;;;;;;19.17;42.81;101070.59;143740;963;46010;-72
2022/04/05 12:18:13;;;;;;;;;;;;;;;19.18;42.59;101066.78;143733;984;46013;-72
2022/04/05 12:20:39;;;;;;;;;;;;;;;19.18;42.51;101064.06;143734;977;47004;-71
2022/04/05 12:23:18;;;;;;;;;;;;;;;19.19;42.04;101055.69;143737;983;46010;-72
2022/04/05 12:26:00;;;;;;;;;;;;;;;19.24;42.60;101061.19;143736;984;46010;-71
2022/04/05 12:28:26;;;;;;;;;;;;;;;19.22;42.48;101055.19;143734;984;46935;-72
2022/04/05 12:30:52;;;;;;;;;;;;;;;19.20;41.81;101060.06;143732;980;47004;-76
2022/04/05 12:33:24;;;;;;;;;;;;;;;19.17;42.06;101060.53;143737;972;46010;-71
2022/04/05 12:35:50;;;;;;;;;;;;;;;19.15;42.00;101051.78;143736;984;47002;-71
2022/04/05 12:38:16;;;;;;;;;;;;;;;19.10;42.77;101051.69;143734;984;46012;-71
2022/04/05 12:40:42;;;;;;;;;;;;;;;19.09;43.26;101058.22;143733;980;47004;-71